Time;durP1;ratioP1;P1;durP2;ratioP2;P2;SDS_P1;SDS_P2;PMS_P1;PMS_P2;Temp;Humidity;BMP_temperature;BMP_pressure;BME280_temperature;BME280_humidity;BME280_pressure;Samples;Min_cycle;Max_cycle;Signal;HPM_P1;HPM_P2
2022/08/06 00:00:16;;;;;;;15.70;13.30;;;;;;;19.91;91.24;99529.16;107245;1277;22931;-61
2022/08/06 00:02:52;;;;;;;14.70;13.30;;;;;;;19.92;91.18;99528.29;107231;1277;139517;-61
2022/08/06 00:05:19;;;;;;;19.50;13.10;;;;;;;19.93;91.02;99525.66;107456;1274;22453;-61
2022/08/06 00:07:57;;;;;;;13.80;12.50;;;;;;;19.94;90.87;99527.27;107459;1274;139805;-61
2022/08/06 00:10:27;;;;;;;17.40;13.50;;;;;;;19.94;90.77;99530.02;107587;1274;22507;-61
2022/08/06 00:12:57;;;;;;;17.30;13.80;;;;;;;19.92;90.54;99528.06;107508;1274;23596;-62
2022/08/06 00:15:26;;;;;;;15.40;13.20;;;;;;;19.94;90.41;99530.25;107400;1275;139705;-62
2022/08/06 00:18:12;;;;;;;14.00;12.20;;;;;;;19.91;90.28;99538.18;107604;1274;22570;-61
2022/08/06 00:20:39;;;;;;;13.90;11.50;;;;;;;19.87;90.07;99536.75;107314;1276;139691;-62
2022/08/06 00:23:08;;;;;;;13.10;11.40;;;;;;;19.85;89.92;99538.95;107422;1277;23537;-62
2022/08/06 00:25:46;;;;;;;15.50;11.70;;;;;;;19.83;89.74;99548.36;107402;1275;138575;-61
2022/08/06 00:28:20;;;;;;;15.00;10.90;;;;;;;19.81;89.58;99552.55;107527;1275;23439;-61
2022/08/06 00:30:58;;;;;;;14.90;11.00;;;;;;;19.80;89.34;99551.30;107465;1276;24203;-61
2022/08/06 00:33:35;;;;;;;13.10;11.60;;;;;;;19.79;89.23;99551.01;107415;1274;140344;-61
2022/08/06 00:36:25;;;;;;;14.30;10.50;;;;;;;19.79;89.13;99551.89;107485;1277;22527;-61
2022/08/06 00:38:57;;;;;;;14.90;11.60;;;;;;;19.76;89.06;99553.27;107369;1274;139528;-60
2022/08/06 00:41:26;;;;;;;15.40;11.70;;;;;;;19.77;88.95;99557.80;104025;1276;24327;-59
2022/08/06 00:44:08;;;;;;;16.30;12.30;;;;;;;19.73;88.96;99557.07;103633;1277;140093;-60
2022/08/06 00:46:38;;;;;;;14.20;12.00;;;;;;;19.72;88.94;99557.46;103960;1277;24440;-59
2022/08/06 00:49:05;;;;;;;15.50;11.20;;;;;;;19.67;89.07;99556.35;103958;1274;25021;-59
2022/08/06 00:51:38;;;;;;;12.70;11.10;;;;;;;19.64;89.20;99552.68;107422;1277;141175;-60
2022/08/06 00:54:18;;;;;;;14.60;11.60;;;;;;;19.59;89.37;99548.67;107483;1276;24453;-60
2022/08/06 00:57:01;;;;;;;13.10;11.30;;;;;;;19.54;89.50;99554.17;107436;1274;140131;-60
2022/08/06 00:59:28;;;;;;;16.80;11.80;;;;;;;19.50;89.59;99556.02;107371;1277;22465;-60
2022/08/06 01:02:01;;;;;;;14.90;11.20;;;;;;;19.46;89.70;99556.96;107399;1275;139412;-60
2022/08/06 01:04:35;;;;;;;13.60;11.00;;;;;;;19.41;89.93;99558.33;107633;1274;22527;-58
2022/08/06 01:07:03;;;;;;;13.50;10.70;;;;;;;19.37;90.05;99556.93;107514;1276;22531;-58
2022/08/06 01:09:34;;;;;;;14.30;11.30;;;;;;;19.36;90.07;99556.97;107396;1277;139032;-59
2022/08/06 01:12:21;;;;;;;12.30;11.10;;;;;;;19.32;90.18;99556.24;107508;1274;23965;-59
2022/08/06 01:15:02;;;;;;;12.30;11.10;;;;;;;19.29;90.26;99557.60;107352;1276;138423;-59
2022/08/06 01:17:35;;;;;;;13.60;11.00;;;;;;;19.27;90.33;99558.85;107574;1274;22415;-60
2022/08/06 01:20:13;;;;;;;13.20;10.80;;;;;;;19.24;90.25;99560.81;107284;1277;138741;-59
2022/08/06 01:23:21;;;;;;;11.70;10.20;;;;;;;19.22;90.16;99562.73;107476;1274;22456;-60
2022/08/06 01:26:13;;;;;;;15.00;10.80;;;;;;;19.19;90.16;99564.38;107453;1274;138595;-60
2022/08/06 01:28:47;;;;;;;12.10;10.90;;;;;;;19.15;90.06;99563.86;107515;1276;23164;-60
2022/08/06 01:31:21;;;;;;;11.60;9.80;;;;;;;19.12;90.03;99559.84;107356;1276;22559;-59
2022/08/06 01:33:56;;;;;;;11.30;10.10;;;;;;;19.08;89.74;99561.33;107170;1276;138390;-60
2022/08/06 01:36:29;;;;;;;9.90;8.70;;;;;;;19.04;89.23;99560.14;107184;1277;22465;-60
2022/08/06 01:38:56;;;;;;;9.20;8.30;;;;;;;19.04;88.82;99562.96;107362;1277;138761;-60
2022/08/06 01:41:38;;;;;;;11.90;8.20;;;;;;;19.02;88.51;99557.00;104067;1276;23039;-60
2022/08/06 01:44:43;;;;;;;10.80;8.20;;;;;;;19.02;87.79;99559.20;103883;1275;138287;-60
2022/08/06 01:47:16;;;;;;;8.50;7.20;;;;;;;19.02;87.20;99558.27;103991;1277;24308;-60
2022/08/06 01:49:49;;;;;;;8.50;7.40;;;;;;;19.02;86.94;99551.52;103808;1276;138082;-60
2022/08/06 01:52:37;;;;;;;13.80;8.00;;;;;;;19.02;86.46;99560.65;104008;1275;24991;-60
2022/08/06 01:55:09;;;;;;;10.00;7.90;;;;;;;19.02;86.30;99563.29;103825;1276;23647;-60
2022/08/06 01:57:40;;;;;;;8.10;7.30;;;;;;;19.02;86.18;99561.30;103927;1274;139847;-60
2022/08/06 02:00:27;;;;;;;10.70;8.50;;;;;;;19.03;86.15;99567.13;104044;1274;24866;-60
2022/08/06 02:02:59;;;;;;;8.70;7.80;;;;;;;19.01;86.23;99565.52;103685;1278;139018;-60
2022/08/06 02:05:27;;;;;;;9.60;8.40;;;;;;;19.02;86.09;99566.21;103836;1277;24904;-60
2022/08/06 02:07:58;;;;;;;9.20;8.30;;;;;;;19.01;86.21;99565.75;103809;1277;139174;-59
2022/08/06 02:10:44;;;;;;;10.00;9.00;;;;;;;18.98;86.15;99563.77;103881;1277;22583;-59
2022/08/06 02:13:13;;;;;;;9.40;8.40;;;;;;;18.96;86.22;99563.32;103898;1277;23141;-59
2022/08/06 02:15:40;;;;;;;10.50;8.80;;;;;;;18.92;86.34;99565.55;104023;1274;139181;-59
2022/08/06 02:18:23;;;;;;;12.50;9.30;;;;;;;18.89;86.33;99565.71;103730;1277;25050;-60
2022/08/06 02:21:07;;;;;;;9.50;8.50;;;;;;;18.83;86.47;99563.08;103940;1277;139558;-60
2022/08/06 02:23:53;;;;;;;11.10;8.50;;;;;;;18.80;86.48;99567.50;104018;1275;22807;-61
2022/08/06 02:26:20;;;;;;;10.50;8.70;;;;;;;18.79;86.53;99566.14;103811;1277;140690;-61
2022/08/06 02:28:50;;;;;;;10.20;8.40;;;;;;;18.78;86.42;99571.40;103977;1277;24163;-59
2022/08/06 02:31:18;;;;;;;10.90;8.10;;;;;;;18.74;86.49;99569.23;103900;1277;22576;-59
2022/08/06 02:33:48;;;;;;;14.70;8.50;;;;;;;18.75;86.35;99574.77;103771;1277;140027;-59
2022/08/06 02:36:45;;;;;;;9.60;8.40;;;;;;;18.73;86.30;99571.31;104051;1274;22685;-59
2022/08/06 02:39:31;;;;;;;10.20;8.10;;;;;;;18.73;86.32;99575.13;107432;1276;138177;-60
2022/08/06 02:42:34;;;;;;;8.50;7.70;;;;;;;18.72;86.20;99571.84;107565;1277;23588;-61
2022/08/06 02:45:07;;;;;;;9.40;8.50;;;;;;;18.72;86.22;99573.54;107464;1277;138545;-60
2022/08/06 02:48:04;;;;;;;9.50;8.50;;;;;;;18.73;86.09;99575.08;107416;1277;23406;-61
2022/08/06 02:50:37;;;;;;;9.50;8.50;;;;;;;18.72;85.98;99576.75;107280;1277;138963;-61
2022/08/06 02:53:37;;;;;;;11.30;8.60;;;;;;;18.72;85.90;99580.39;107139;1276;23558;-61
2022/08/06 02:56:25;;;;;;;9.30;8.20;;;;;;;18.72;85.91;99578.52;106798;1281;139029;-61
2022/08/06 02:58:53;;;;;;;9.10;8.10;;;;;;;18.74;85.81;99584.43;107000;1281;22708;-61
2022/08/06 03:01:32;;;;;;;10.50;7.80;;;;;;;18.74;85.69;99585.93;106911;1281;22423;-61
2022/08/06 03:04:05;;;;;;;8.30;7.50;;;;;;;18.74;85.66;99587.14;106799;1281;23570;-60
2022/08/06 03:06:35;;;;;;;8.90;8.00;;;;;;;18.75;85.54;99586.29;106744;1281;22478;-61
2022/08/06 03:09:04;;;;;;;9.00;8.20;;;;;;;18.76;85.46;99590.11;106944;1281;139408;-61
2022/08/06 03:11:33;;;;;;;12.20;8.80;;;;;;;18.77;85.47;99591.62;106922;1281;24251;-61
2022/08/06 03:14:01;;;;;;;12.70;8.50;;;;;;;18.78;85.55;99595.04;106708;1281;140055;-61
2022/08/06 03:16:48;;;;;;;10.20;8.10;;;;;;;18.77;85.46;99596.43;105665;1281;1882537;-62
2022/08/06 03:20:38;;;;;;;10.60;9.60;;;;;;;18.80;85.51;99592.89;100865;1310;545403;-62
2022/08/06 03:23:06;;;;;;;14.40;9.40;;;;;;;18.81;85.43;99598.95;102951;1287;22612;-61
2022/08/06 03:25:33;;;;;;;11.50;8.60;;;;;;;18.82;85.10;99599.80;102988;1287;22768;-62
2022/08/06 03:28:08;;;;;;;9.40;8.50;;;;;;;18.83;84.63;99603.22;103086;1287;24909;-61
2022/08/06 03:30:35;;;;;;;9.90;8.10;;;;;;;18.84;84.62;99605.58;102826;1289;24270;-61
2022/08/06 03:33:06;;;;;;;12.60;8.70;;;;;;;18.85;84.35;99609.58;103339;1281;138775;-62
2022/08/06 03:35:54;;;;;;;9.10;8.10;;;;;;;18.88;84.53;99610.18;102065;1280;24551;-61
2022/08/06 03:38:22;;;;;;;11.50;8.70;;;;;;;18.90;84.57;99610.17;103648;1280;139964;-61
2022/08/06 03:40:55;;;;;;;10.70;8.90;;;;;;;18.94;84.67;99615.48;104026;1280;22611;-68
2022/08/06 03:43:22;;;;;;;9.30;8.40;;;;;;;18.96;84.65;99618.77;103831;1280;27634;-68
2022/08/06 03:46:08;;;;;;;9.50;8.20;;;;;;;19.00;84.63;99623.20;103859;1280;22584;-68
2022/08/06 03:48:40;;;;;;;10.50;8.30;;;;;;;19.03;84.67;99624.19;103654;1280;22738;-68
2022/08/06 03:51:12;;;;;;;9.70;8.80;;;;;;;19.04;84.57;99621.61;103465;1280;139666;-67
2022/08/06 03:53:40;;;;;;;9.40;8.50;;;;;;;19.09;84.53;99624.04;103731;1280;22567;-67
2022/08/06 03:56:18;;;;;;;12.50;8.20;;;;;;;19.13;84.26;99623.80;103507;1280;139444;-67
2022/08/06 03:58:58;;;;;;;8.60;7.80;;;;;;;19.15;84.13;99626.00;103723;1280;22579;-67
2022/08/06 04:01:26;;;;;;;10.90;8.50;;;;;;;19.20;84.21;99620.70;106985;1281;23200;-67
2022/08/06 04:03:55;;;;;;;9.50;8.50;;;;;;;19.25;84.16;99620.80;106791;1280;139350;-69
2022/08/06 04:06:22;;;;;;;9.80;8.50;;;;;;;19.28;84.00;99619.63;107092;1280;22510;-69
2022/08/06 04:08:53;;;;;;;10.00;9.10;;;;;;;19.34;83.93;99625.72;106987;1280;138784;-69
2022/08/06 04:11:20;;;;;;;10.80;8.90;;;;;;;19.37;83.70;99625.13;107159;1280;22586;-68
2022/08/06 04:14:07;;;;;;;11.90;8.90;;;;;;;19.44;83.45;99632.17;106925;1280;139162;-69
2022/08/06 04:16:35;;;;;;;12.50;8.70;;;;;;;19.47;83.22;99632.36;107246;1280;22881;-70
2022/08/06 04:19:04;;;;;;;9.90;8.40;;;;;;;19.51;83.18;99632.27;106855;1280;22502;-71
2022/08/06 04:21:38;;;;;;;10.50;9.00;;;;;;;19.56;82.98;99635.98;107081;1277;138939;-68
2022/08/06 04:24:25;;;;;;;13.70;9.60;;;;;;;19.60;83.08;99637.72;107057;1277;23078;-68
2022/08/06 04:26:59;;;;;;;13.90;9.30;;;;;;;19.65;83.16;99637.80;107046;1280;138868;-69
2022/08/06 04:29:30;;;;;;;15.60;8.70;;;;;;;19.70;82.98;99638.73;107295;1277;22511;-66
2022/08/06 04:32:17;;;;;;;15.40;9.40;;;;;;;19.74;82.86;99644.42;106828;1280;138180;-66
2022/08/06 04:34:54;;;;;;;10.70;9.50;;;;;;;19.75;82.74;99638.30;107158;1280;23445;-66
2022/08/06 04:37:41;;;;;;;10.90;8.80;;;;;;;19.80;82.70;99641.55;106900;1280;139615;-67
2022/08/06 04:40:09;;;;;;;11.30;8.80;;;;;;;19.83;82.79;99635.22;106965;1277;23299;-61
2022/08/06 04:42:53;;;;;;;10.40;8.80;;;;;;;19.88;82.81;99631.84;107063;1277;22468;-61
2022/08/06 04:45:20;;;;;;;9.50;8.60;;;;;;;19.94;82.63;99632.77;107027;1277;138235;-61
2022/08/06 04:48:10;;;;;;;10.60;9.50;;;;;;;19.99;82.62;99634.40;107046;1280;22582;-61
2022/08/06 04:50:47;;;;;;;11.00;8.80;;;;;;;20.07;82.47;99640.23;106804;1279;138542;-61
2022/08/06 04:53:15;;;;;;;18.30;8.60;;;;;;;20.15;82.42;99646.82;107265;1277;22455;-61
2022/08/06 04:56:02;;;;;;;12.30;8.40;;;;;;;20.23;82.10;99644.83;107103;1279;138620;-61
2022/08/06 04:58:30;;;;;;;10.10;9.10;;;;;;;20.31;81.95;99646.21;107163;1280;22407;-61
2022/08/06 05:00:59;;;;;;;13.20;9.50;;;;;;;20.39;81.52;99646.55;107223;1280;22443;-61
2022/08/06 05:03:36;;;;;;;14.80;9.40;;;;;;;20.50;81.50;99648.36;107023;1279;138505;-61
2022/08/06 05:06:48;;;;;;;9.80;8.90;;;;;;;20.62;80.93;99647.02;107258;1278;22405;-61
2022/08/06 05:09:20;;;;;;;10.20;9.30;;;;;;;20.73;80.53;99646.46;107047;1280;137515;-61
2022/08/06 05:12:02;;;;;;;15.40;8.80;;;;;;;20.86;80.09;99648.85;107085;1277;22954;-61
2022/08/06 05:14:41;;;;;;;9.20;8.30;;;;;;;21.02;79.62;99646.52;107013;1279;137960;-61
2022/08/06 05:17:09;;;;;;;12.00;8.70;;;;;;;21.23;78.67;99641.15;107038;1280;22410;-61
2022/08/06 05:19:44;;;;;;;11.10;8.90;;;;;;;21.44;77.69;99640.89;107037;1277;139662;-60
2022/08/06 05:22:13;;;;;;;10.80;8.80;;;;;;;21.69;77.30;99636.54;107009;1280;23282;-60
2022/08/06 05:25:00;;;;;;;10.30;8.20;;;;;;;21.97;76.16;99635.02;107182;1278;23557;-60
2022/08/06 05:27:42;;;;;;;8.90;8.00;;;;;;;22.23;74.76;99631.45;106934;1280;139541;-60
2022/08/06 05:30:28;;;;;;;10.40;8.90;;;;;;;22.48;74.06;99631.98;107214;1277;22438;-59
2022/08/06 05:32:56;;;;;;;8.90;8.00;;;;;;;22.72;72.83;99630.92;107204;1277;138509;-59
2022/08/06 05:35:24;;;;;;;12.70;8.10;;;;;;;22.89;72.04;99636.16;107322;1277;22594;-60
2022/08/06 05:38:08;;;;;;;9.10;8.00;;;;;;;23.13;71.51;99635.34;107259;1277;138616;-60
2022/08/06 05:40:38;;;;;;;8.80;7.30;;;;;;;23.36;70.27;99635.34;107306;1277;22417;-60
2022/08/06 05:43:23;;;;;;;10.30;8.70;;;;;;;23.60;69.65;99636.16;107380;1277;22493;-61
2022/08/06 05:45:54;;;;;;;8.40;7.60;;;;;;;23.82;69.01;99640.70;107133;1279;139036;-60
2022/08/06 05:48:23;;;;;;;9.10;7.20;;;;;;;24.01;67.48;99640.98;107238;1277;22954;-60
2022/08/06 05:51:01;;;;;;;7.20;6.50;;;;;;;24.16;66.95;99644.81;107082;1280;139891;-61
2022/08/06 05:53:44;;;;;;;8.20;6.60;;;;;;;24.28;65.89;99642.57;107313;1277;22450;-61
2022/08/06 05:56:35;;;;;;;8.90;7.30;;;;;;;24.37;65.25;99639.21;107106;1277;138504;-61
2022/08/06 05:59:26;;;;;;;8.40;7.50;;;;;;;24.46;65.01;99639.91;107088;1277;23362;-61
2022/08/06 06:02:13;;;;;;;8.30;6.60;;;;;;;24.58;64.37;99634.52;107178;1278;137802;-61
2022/08/06 06:04:42;;;;;;;7.60;6.70;;;;;;;24.65;64.15;99639.10;107348;1277;22459;-61
2022/08/06 06:07:13;;;;;;;9.10;6.90;;;;;;;24.69;64.00;99635.89;107188;1277;22565;-61
2022/08/06 06:10:01;;;;;;;8.70;7.00;;;;;;;24.70;64.15;99634.38;107180;1278;137084;-62
2022/08/06 06:12:31;;;;;;;10.30;7.30;;;;;;;24.71;64.09;99636.42;107203;1278;22410;-62
2022/08/06 06:14:59;;;;;;;7.90;7.20;;;;;;;24.73;63.58;99642.77;106962;1278;137944;-62
2022/08/06 06:17:33;;;;;;;8.70;7.20;;;;;;;24.67;63.66;99641.15;107164;1277;22372;-61
2022/08/06 06:20:23;;;;;;;9.10;7.70;;;;;;;24.61;64.36;99638.58;107120;1280;137861;-62
2022/08/06 06:23:21;;;;;;;10.50;8.00;;;;;;;24.55;63.82;99632.48;107109;1278;22515;-61
2022/08/06 06:26:14;;;;;;;8.30;7.40;;;;;;;24.44;63.87;99628.80;107161;1277;138850;-60
2022/08/06 06:29:34;;;;;;;12.90;8.10;;;;;;;24.33;64.11;99634.13;107168;1277;22432;-61
2022/08/06 06:32:36;;;;;;;9.50;7.60;;;;;;;24.24;64.64;99630.09;107198;1277;138698;-61
2022/08/06 06:35:31;;;;;;;8.90;7.70;;;;;;;24.23;65.40;99631.52;107256;1278;22437;-62
2022/08/06 06:38:36;;;;;;;8.30;7.30;;;;;;;24.23;65.31;99634.10;106967;1280;138977;-59
2022/08/06 06:41:16;;;;;;;40.40;12.80;;;;;;;24.24;65.71;99634.38;104121;1280;25048;-62
2022/08/06 06:43:55;;;;;;;18.30;8.80;;;;;;;24.26;66.17;99633.97;103529;1280;139897;-60
2022/08/06 06:46:29;;;;;;;17.80;8.40;;;;;;;24.26;66.20;99634.85;103971;1277;22602;-61
2022/08/06 06:49:14;;;;;;;13.90;8.20;;;;;;;24.27;66.35;99630.36;103738;1280;23819;-61
2022/08/06 06:52:14;;;;;;;10.10;7.70;;;;;;;24.28;66.40;99633.48;103755;1277;138664;-60
2022/08/06 06:55:06;;;;;;;11.80;7.70;;;;;;;24.30;66.03;99632.23;103811;1277;22587;-61
2022/08/06 06:57:48;;;;;;;8.60;7.80;;;;;;;24.32;65.96;99628.46;103644;1280;138954;-60
2022/08/06 07:00:17;;;;;;;10.20;8.70;;;;;;;24.35;66.08;99626.18;103613;1277;24740;-61
2022/08/06 07:03:04;;;;;;;9.50;8.20;;;;;;;24.37;65.55;99619.48;103511;1280;139675;-61
2022/08/06 07:05:36;;;;;;;12.60;9.00;;;;;;;24.38;66.23;99616.97;107221;1280;23223;-62
2022/08/06 07:08:23;;;;;;;11.50;8.60;;;;;;;24.39;66.03;99617.08;107140;1280;137950;-61
2022/08/06 07:11:02;;;;;;;9.10;8.20;;;;;;;24.41;66.32;99616.34;107086;1277;23543;-61
2022/08/06 07:13:30;;;;;;;10.10;8.10;;;;;;;24.45;65.79;99618.55;107007;1277;22436;-61
2022/08/06 07:16:17;;;;;;;9.50;7.80;;;;;;;24.50;65.42;99618.73;107197;1277;22535;-61
2022/08/06 07:19:03;;;;;;;9.50;8.50;;;;;;;24.54;64.96;99617.09;107288;1277;23105;-62
2022/08/06 07:21:30;;;;;;;18.60;9.30;;;;;;;24.58;65.33;99617.21;107096;1277;138380;-62
2022/08/06 07:23:57;;;;;;;10.20;8.20;;;;;;;24.62;65.14;99614.73;107066;1279;23867;-62
2022/08/06 07:26:45;;;;;;;8.80;7.90;;;;;;;24.67;64.74;99609.21;106985;1277;138589;-62
2022/08/06 07:29:16;;;;;;;10.20;8.60;;;;;;;24.74;64.65;99611.38;107208;1280;22477;-61
2022/08/06 07:32:03;;;;;;;9.90;8.10;;;;;;;24.79;64.54;99608.59;106961;1280;138268;-62
2022/08/06 07:34:31;;;;;;;11.10;8.90;;;;;;;24.83;64.54;99609.10;107148;1280;22444;-61
2022/08/06 07:36:59;;;;;;;10.00;8.70;;;;;;;24.89;64.65;99612.63;107253;1277;22627;-61
2022/08/06 07:39:28;;;;;;;11.80;8.40;;;;;;;24.94;63.89;99611.38;106999;1277;138206;-68
2022/08/06 07:42:00;;;;;;;10.90;8.10;;;;;;;24.95;63.96;99611.49;107136;1280;22483;-67
2022/08/06 07:44:40;;;;;;;15.00;9.10;;;;;;;24.98;64.05;99618.20;107110;1277;139858;-68
2022/08/06 07:47:30;;;;;;;9.90;8.30;;;;;;;25.03;64.20;99620.73;107171;1280;22546;-67
2022/08/06 07:50:17;;;;;;;10.20;8.70;;;;;;;25.09;63.61;99614.86;107012;1277;139325;-67
2022/08/06 07:52:52;;;;;;;9.50;8.60;;;;;;;25.12;63.27;99608.48;107341;1277;22451;-67
2022/08/06 07:55:24;;;;;;;10.80;8.30;;;;;;;25.12;62.79;99609.54;107262;1277;22482;-67
2022/08/06 07:57:53;;;;;;;10.30;8.40;;;;;;;25.14;63.36;99609.83;106987;1280;139880;-67
2022/08/06 08:00:25;;;;;;;15.70;9.00;;;;;;;25.17;62.89;99610.57;107135;1277;22930;-68
2022/08/06 08:09:16;;;;;;;9.30;8.20;;;;;;;25.34;62.74;99604.52;107052;1280;139257;-68
2022/08/06 08:11:55;;;;;;;10.60;8.50;;;;;;;25.39;62.87;99604.20;107317;1277;23113;-68
2022/08/06 08:14:45;;;;;;;11.00;10.00;;;;;;;25.47;62.51;99607.28;107114;1277;137679;-68
2022/08/06 08:17:15;;;;;;;13.40;9.70;;;;;;;25.50;62.01;99606.27;107291;1277;22510;-68
2022/08/06 08:19:55;;;;;;;11.60;9.30;;;;;;;25.52;62.17;99607.43;107154;1280;139084;-68
2022/08/06 08:22:22;;;;;;;10.20;9.00;;;;;;;25.54;61.97;99613.08;107081;1280;23381;-68
2022/08/06 08:24:50;;;;;;;11.60;9.10;;;;;;;25.55;61.42;99608.39;107272;1277;22485;-68
2022/08/06 08:27:21;;;;;;;11.50;9.70;;;;;;;25.54;61.03;99607.25;107260;1277;137942;-68
2022/08/06 08:29:52;;;;;;;10.30;9.20;;;;;;;25.52;61.43;99610.80;107290;1279;23111;-66
2022/08/06 08:32:23;;;;;;;12.60;8.60;;;;;;;25.54;61.85;99606.36;107037;1280;138502;-67
2022/08/06 08:34:50;;;;;;;11.00;9.70;;;;;;;25.54;61.72;99604.05;107355;1277;22657;-67
2022/08/06 08:37:19;;;;;;;11.30;10.10;;;;;;;25.54;61.29;99601.36;107109;1278;22453;-67
2022/08/06 08:39:46;;;;;;;11.10;10.00;;;;;;;25.58;61.41;99606.16;106176;1280;138287;-61
2022/08/06 08:42:18;;;;;;;11.30;10.30;;;;;;;25.58;61.69;99598.60;103814;1280;22999;-61
2022/08/06 08:44:59;;;;;;;11.30;9.80;;;;;;;25.59;61.65;99596.15;103622;1278;138107;-61
2022/08/06 08:47:26;;;;;;;14.60;9.50;;;;;;;25.59;61.56;99597.27;107300;1277;22618;-61
2022/08/06 08:50:13;;;;;;;11.30;10.20;;;;;;;25.62;61.65;99596.50;107146;1280;138785;-61
2022/08/06 08:52:44;;;;;;;10.80;8.10;;;;;;;25.64;60.80;99597.94;107158;1277;22596;-61
2022/08/06 08:55:11;;;;;;;10.50;9.00;;;;;;;25.66;61.14;99596.23;107166;1277;22433;-61
2022/08/06 08:57:58;;;;;;;12.80;9.80;;;;;;;25.71;61.16;99597.23;107187;1278;138456;-62
2022/08/06 09:00:45;;;;;;;10.30;9.20;;;;;;;25.78;60.87;99598.46;107330;1278;22521;-62
2022/08/06 09:03:18;;;;;;;12.10;9.10;;;;;;;25.85;61.03;99596.73;107046;1280;141347;-61
2022/08/06 09:05:45;;;;;;;10.00;8.50;;;;;;;25.90;60.51;99595.90;107186;1278;23112;-61
2022/08/06 09:08:13;;;;;;;12.90;9.00;;;;;;;25.95;60.61;99599.95;107147;1277;138979;-61
2022/08/06 09:11:00;;;;;;;10.30;8.30;;;;;;;25.98;60.18;99602.98;107196;1277;23641;-62
2022/08/06 09:13:37;;;;;;;10.30;8.80;;;;;;;26.03;59.69;99603.20;107124;1280;137444;-62
2022/08/06 09:16:17;;;;;;;9.60;8.70;;;;;;;26.07;59.60;99603.13;107214;1280;22409;-62
2022/08/06 09:18:58;;;;;;;9.50;8.60;;;;;;;26.11;59.09;99609.07;107273;1278;22497;-62
2022/08/06 09:21:26;;;;;;;9.50;8.60;;;;;;;26.14;58.67;99602.59;107207;1277;138099;-61
2022/08/06 09:23:54;;;;;;;10.30;9.30;;;;;;;26.17;58.96;99603.08;107038;1280;22456;-61
2022/08/06 09:26:24;;;;;;;10.40;9.50;;;;;;;26.19;58.60;99598.83;107212;1277;138554;-62
2022/08/06 09:29:20;;;;;;;;;;;;;;;26.21;58.61;99601.91;107172;1279;24596;-62
2022/08/06 09:31:57;;;;;;;10.90;8.60;;;;;;;26.23;58.75;99603.46;107102;1280;124556;-61
2022/08/06 09:34:37;;;;;;;8.50;7.60;;;;;;;26.23;58.74;99597.65;107162;1278;23160;-62
2022/08/06 09:37:07;;;;;;;10.50;9.50;;;;;;;26.25;58.06;99599.45;107100;1280;22937;-62
2022/08/06 09:39:44;;;;;;;10.20;9.20;;;;;;;26.28;58.38;99603.85;107163;1277;138863;-67
2022/08/06 09:42:48;;;;;;;11.20;9.60;;;;;;;26.33;58.52;99604.01;107138;1280;23251;-68
2022/08/06 09:45:19;;;;;;;9.90;8.90;;;;;;;26.36;58.83;99605.50;107158;1278;137591;-68
2022/08/06 09:48:06;;;;;;;10.80;9.10;;;;;;;26.40;58.51;99606.40;107207;1277;23263;-68
2022/08/06 09:50:48;;;;;;;8.50;7.70;;;;;;;26.44;58.09;99601.70;107196;1278;138809;-68
2022/08/06 09:53:17;;;;;;;9.00;8.10;;;;;;;26.49;57.56;99602.70;107327;1277;22501;-68
2022/08/06 09:55:49;;;;;;;10.20;9.10;;;;;;;26.54;57.19;99604.33;107134;1277;138934;-69
2022/08/06 09:58:34;;;;;;;10.80;9.70;;;;;;;26.60;57.47;99608.40;107093;1280;22505;-68
2022/08/06 10:01:18;;;;;;;12.30;9.40;;;;;;;26.62;57.20;99603.73;107300;1277;22384;-68
2022/08/06 10:03:49;;;;;;;11.80;8.30;;;;;;;26.65;56.78;99604.21;107220;1277;138874;-68
2022/08/06 10:06:34;;;;;;;11.00;9.40;;;;;;;26.66;56.45;99600.97;107207;1279;22543;-68
2022/08/06 10:09:12;;;;;;;11.50;9.10;;;;;;;26.69;56.42;99603.35;107204;1277;139157;-68
2022/08/06 10:11:59;;;;;;;8.50;7.40;;;;;;;26.72;56.03;99605.50;107297;1277;22580;-68
2022/08/06 10:14:29;;;;;;;10.30;7.70;;;;;;;26.75;55.85;99603.33;107106;1278;138598;-68
2022/08/06 10:17:05;;;;;;;8.40;7.60;;;;;;;26.80;55.30;99603.84;107218;1279;23730;-71
2022/08/06 10:19:34;;;;;;;10.50;8.60;;;;;;;26.81;55.39;99598.13;107276;1278;25436;-68
2022/08/06 10:22:05;;;;;;;10.10;9.10;;;;;;;26.81;55.82;99595.23;107196;1280;24235;-68
2022/08/06 10:24:37;;;;;;;12.70;10.00;;;;;;;26.84;56.44;99596.98;107294;1278;22804;-68
2022/08/06 10:27:21;;;;;;;9.70;8.80;;;;;;;26.88;56.42;99594.91;106995;1278;140284;-68
2022/08/06 10:29:53;;;;;;;17.80;9.70;;;;;;;26.90;57.10;99594.17;107190;1280;22479;-68
2022/08/06 10:32:38;;;;;;;9.90;8.30;;;;;;;26.93;57.03;99596.34;107176;1277;138084;-69
2022/08/06 10:35:05;;;;;;;8.20;7.40;;;;;;;26.97;56.37;99598.52;107155;1280;22542;-69
2022/08/06 10:37:44;;;;;;;10.80;7.50;;;;;;;27.01;54.95;99597.88;107209;1278;139326;-69
2022/08/06 10:40:15;;;;;;;11.80;8.10;;;;;;;27.08;54.99;99598.91;107205;1277;23211;-62
2022/08/06 10:42:55;;;;;;;9.20;7.90;;;;;;;27.11;55.10;99593.15;107198;1280;22529;-62
2022/08/06 10:45:22;;;;;;;9.60;8.60;;;;;;;27.14;55.45;99594.08;107056;1278;138571;-62
2022/08/06 10:47:52;;;;;;;9.60;8.50;;;;;;;27.17;56.60;99597.02;107284;1278;22431;-62
2022/08/06 10:50:39;;;;;;;10.70;9.60;;;;;;;27.24;56.43;99599.02;107131;1280;138448;-62
2022/08/06 10:53:20;;;;;;;10.80;8.60;;;;;;;27.32;56.44;99598.05;107314;1277;22641;-62
2022/08/06 10:56:08;;;;;;;8.20;7.40;;;;;;;27.39;55.98;99600.86;107108;1278;138245;-62
2022/08/06 10:58:38;;;;;;;8.30;7.50;;;;;;;27.45;55.55;99600.46;107315;1277;24352;-62
2022/08/06 11:01:29;;;;;;;10.10;8.00;;;;;;;27.49;55.28;99596.08;107266;1277;22450;-62
2022/08/06 11:04:38;;;;;;;7.80;7.00;;;;;;;27.53;55.69;99596.16;107277;1278;23767;-62
2022/08/06 11:07:34;;;;;;;8.40;6.60;;;;;;;27.59;54.67;99590.15;107233;1277;23366;-61
2022/08/06 11:10:26;;;;;;;7.70;6.70;;;;;;;27.64;53.44;99586.66;107271;1277;22509;-62
2022/08/06 11:12:57;;;;;;;7.20;6.50;;;;;;;27.66;53.36;99585.83;107277;1277;24242;-61
2022/08/06 11:15:25;;;;;;;8.70;6.60;;;;;;;27.68;53.79;99589.54;106853;1280;138655;-62
2022/08/06 11:18:04;;;;;;;8.00;7.10;;;;;;;27.70;53.63;99587.26;107271;1277;22406;-62
2022/08/06 11:20:31;;;;;;;7.70;6.90;;;;;;;27.70;53.36;99582.69;107198;1278;137910;-62
2022/08/06 11:22:59;;;;;;;7.30;6.40;;;;;;;27.71;52.92;99581.51;107373;1277;23876;-61
2022/08/06 11:25:43;;;;;;;6.40;5.80;;;;;;;27.72;52.42;99580.89;107363;1277;22425;-61
2022/08/06 11:28:13;;;;;;;8.40;6.40;;;;;;;27.75;50.46;99584.30;107243;1278;23895;-62
2022/08/06 11:30:45;;;;;;;8.80;6.20;;;;;;;27.73;50.32;99583.77;107326;1278;23167;-62
2022/08/06 11:33:18;;;;;;;7.40;6.70;;;;;;;27.69;50.63;99582.77;107216;1278;138398;-62
2022/08/06 11:35:48;;;;;;;6.60;6.00;;;;;;;27.67;50.77;99582.25;107241;1278;23215;-62
2022/08/06 11:38:47;;;;;;;7.30;6.60;;;;;;;27.67;50.45;99583.29;107203;1278;138132;-61
2022/08/06 11:41:27;;;;;;;8.00;6.70;;;;;;;27.68;50.90;99581.55;104247;1280;23045;-61
2022/08/06 11:44:17;;;;;;;7.80;5.90;;;;;;;27.67;51.12;99578.65;103768;1281;137894;-61
2022/08/06 11:47:06;;;;;;;7.40;6.40;;;;;;;27.67;51.00;99579.46;103878;1280;23023;-61
2022/08/06 11:49:38;;;;;;;7.20;6.30;;;;;;;27.71;51.32;99582.15;103897;1281;22886;-61
2022/08/06 11:52:33;;;;;;;9.00;6.90;;;;;;;27.76;51.18;99583.13;103899;1278;22647;-62
2022/08/06 11:55:06;;;;;;;6.80;6.30;;;;;;;27.79;51.09;99581.91;103871;1280;25717;-61
2022/08/06 11:57:40;;;;;;;9.80;6.30;;;;;;;27.78;51.34;99582.29;103724;1277;138966;-61
2022/08/06 12:00:17;;;;;;;7.70;6.30;;;;;;;27.79;51.03;99584.55;103615;1280;26502;-61
2022/08/06 12:02:49;;;;;;;6.40;5.80;;;;;;;27.78;51.21;99578.30;103643;1281;140036;-61
2022/08/06 12:05:20;;;;;;;8.30;6.40;;;;;;;27.78;51.09;99578.21;103722;1277;22748;-61
2022/08/06 12:08:18;;;;;;;6.00;5.40;;;;;;;27.77;50.43;99578.27;107092;1278;137797;-61
2022/08/06 12:11:29;;;;;;;6.30;5.20;;;;;;;27.78;50.58;99575.64;107230;1279;22586;-61